Página principal
METAR-TAF:

METAR-TAF

Aeroportos :

Aeroporto Internacional de Atenas

Atenas, Grécia

latitude: 37-56N, longitude: 023-56E, altura: 94 m

Observação actual do tempo

O boletim foi feito há 40 minutos, às 10:20 UTC
Vento 8 kt de sudoeste, variando entre sul e oes-sudoeste
Temperatura 20°C
Humidade 53%
Pressão 1015 hPa
Visibilidade 10 km ou mais
Poucas nuvensa uma altura de 2500 ft

METAR: LGAV 221020Z 22008KT 170V250 9999 FEW025 20/10 Q1015 NOSIG

Hora: 13:00 (11:00 UTC)

Previsão

O boletim foi feito há 6 horas e 0 minutos, às 05:00 UTC
Previsão válida de 22 às 06 UTC a 23 às 06 UTC
Vento 3 kt com direcção variável
Visibilidade 10 km ou mais
Poucas nuvensa uma altura de 2000 ft
Tornando-se
de 22 às 06 UTC a 22 às 08 UTC
Vento 10 kt de oes-noroeste

TAF: LGAV 220500Z 2206/2306 VRB03KT 9999 FEW020 BECMG 2206/2208 29010KT

Observações e previsões do tempo de mais de 4000 aeroportos (mensagens METAR e TAF).

As estações disponíveis são os pontos amarelos e vermelhos sobre o mapa.

Mova o rato sobre o mapa para ver o nome da estação.

Depois clique no ponto para visualizar as observações e previsões meteorológicas.

Para alterar o mapa : clique nos botões verdes com uma cruz preta para aumentar o zoom; no botão verde com uma pitada de zoom; ou nas setas verdes para mapas adjacentes.


METAR-TAF: